Time;durP1;ratioP1;P1;durP2;ratioP2;P2;SDS_P1;SDS_P2;PMS_P1;PMS_P2;Temp;Humidity;BMP_temperature;BMP_pressure;BME280_temperature;BME280_humidity;BME280_pressure;Samples;Min_cycle;Max_cycle;Signal;HPM_P1;HPM_P2
2021/12/01 00:02:23;;;;;;;7.50;1.65;;;4.30;99.90;;;5.26;78.62;99924.66;5083981;28;20191;-73
2021/12/01 00:04:50;;;;;;;11.90;2.53;;;4.30;99.90;;;5.28;78.38;99933.25;5083364;28;20188;-73
2021/12/01 00:07:17;;;;;;;7.93;1.65;;;4.30;99.90;;;5.29;78.28;99928.91;5077963;28;20198;-72
2021/12/01 00:09:45;;;;;;;8.90;1.80;;;4.30;99.90;;;5.30;78.39;99930.59;5089734;28;20289;-73
2021/12/01 00:12:12;;;;;;;7.50;1.83;;;4.40;99.90;;;5.33;78.33;99922.72;5093040;28;20257;-74
2021/12/01 00:14:38;;;;;;;12.40;1.40;;;4.40;99.90;;;5.36;78.41;99920.06;5085763;28;20199;-73
2021/12/01 00:17:10;;;;;;;10.90;1.95;;;4.50;99.90;;;5.39;78.25;99925.16;5085825;28;20187;-73
2021/12/01 00:19:37;;;;;;;6.45;1.20;;;4.50;99.90;;;5.40;78.19;99919.06;5091098;28;20596;-74
2021/12/01 00:22:04;;;;;;;8.40;1.80;;;4.50;99.90;;;5.40;77.95;99912.16;5106027;28;20392;-73
2021/12/01 00:24:31;;;;;;;7.60;1.52;;;4.50;99.90;;;5.42;77.68;99902.59;5080695;28;20192;-73
2021/12/01 00:26:58;;;;;;;8.20;1.50;;;4.50;99.90;;;5.43;77.98;99890.44;5087147;28;20194;-73
2021/12/01 00:29:25;;;;;;;7.45;1.65;;;4.50;99.90;;;5.45;77.84;99897.28;5086878;28;20203;-74
2021/12/01 00:31:51;;;;;;;5.82;1.40;;;4.60;99.90;;;5.44;77.82;99899.94;5082549;28;20211;-74
2021/12/01 00:34:19;;;;;;;7.53;1.48;;;4.50;99.90;;;5.44;77.76;99900.81;5086718;28;20184;-74
2021/12/01 00:36:46;;;;;;;9.27;1.67;;;4.60;99.90;;;5.43;77.80;99904.25;5085962;28;20202;-74
2021/12/01 00:39:13;;;;;;;10.77;1.60;;;4.50;99.90;;;5.42;77.95;99896.53;5088234;28;20184;-74
2021/12/01 00:41:40;;;;;;;12.10;1.73;;;4.50;99.90;;;5.41;78.01;99900.88;5082865;28;20212;-73
2021/12/01 00:44:09;;;;;;;10.57;2.10;;;4.50;99.90;;;5.41;78.03;99906.06;5088281;28;20753;-73
2021/12/01 00:46:39;;;;;;;10.77;1.70;;;4.50;99.90;;;5.41;78.39;99910.41;5091434;28;20199;-74
2021/12/01 00:49:07;;;;;;;6.60;1.90;;;4.50;99.90;;;5.40;78.09;99916.47;5089972;28;20195;-73
2021/12/01 00:51:36;;;;;;;8.13;1.80;;;4.50;99.90;;;5.41;77.96;99916.44;5086276;28;20756;-74
2021/12/01 00:54:03;;;;;;;8.50;1.70;;;4.60;99.90;;;5.41;78.31;99913.84;5087637;28;20578;-73
2021/12/01 00:56:30;;;;;;;6.97;1.48;;;4.50;99.90;;;5.38;78.10;99911.34;5090770;28;20191;-73
2021/12/01 00:58:57;;;;;;;14.88;1.92;;;4.50;99.90;;;5.34;78.66;99914.06;5084214;28;20203;-72
2021/12/01 01:01:23;;;;;;;9.82;1.98;;;4.50;99.90;;;5.34;78.98;99904.56;5090726;28;20214;-74
2021/12/01 01:03:50;;;;;;;13.25;2.25;;;4.50;99.90;;;5.35;78.94;99900.19;5090762;28;20191;-73
2021/12/01 01:06:17;;;;;;;13.38;1.98;;;4.50;99.90;;;5.38;79.34;99897.50;5085607;28;20180;-73
2021/12/01 01:08:46;;;;;;;11.55;2.22;;;4.60;99.90;;;5.43;79.46;99895.63;5087247;28;20668;-74
2021/12/01 01:16:45;;;;;;;16.67;3.15;;;4.70;99.90;;;5.44;79.59;99886.97;5088080;28;20192;-73
2021/12/01 01:19:15;;;;;;;12.32;2.50;;;4.70;99.90;;;5.44;79.97;99882.63;5086573;28;20195;-73
2021/12/01 01:21:47;;;;;;;13.32;2.50;;;4.70;99.90;;;5.47;79.84;99879.09;5084159;28;20216;-73
2021/12/01 01:24:17;;;;;;;12.73;2.10;;;4.70;99.90;;;5.47;80.09;99879.94;5085436;28;20195;-73
2021/12/01 01:26:44;;;;;;;9.88;1.65;;;4.70;99.90;;;5.46;80.36;99878.22;5089327;28;20656;-73
2021/12/01 01:29:11;;;;;;;6.93;1.60;;;4.70;99.90;;;5.41;80.28;99874.09;5081670;28;20192;-73
2021/12/01 01:31:40;;;;;;;9.90;1.75;;;4.70;99.90;;;5.41;80.39;99868.91;5085699;28;20214;-73
2021/12/01 01:34:07;;;;;;;11.10;2.20;;;4.70;99.90;;;5.44;80.44;99864.47;5087670;28;20218;-74
2021/12/01 01:36:34;;;;;;;13.35;1.90;;;4.70;99.90;;;5.45;80.39;99867.91;5092968;28;20188;-73
2021/12/01 01:39:01;;;;;;;17.42;2.25;;;4.70;99.90;;;5.44;80.97;99858.44;5088733;28;20198;-74
2021/12/01 01:41:29;;;;;;;14.32;1.98;;;4.70;99.90;;;5.45;80.84;99848.00;5089194;28;20588;-73
2021/12/01 01:43:57;;;;;;;13.82;3.38;;;4.70;99.90;;;5.47;80.73;99847.97;5087058;28;20202;-73
2021/12/01 01:46:24;;;;;;;8.68;1.80;;;4.70;99.90;;;5.46;81.13;99844.50;5082883;28;20184;-73
2021/12/01 01:48:54;;;;;;;13.48;2.10;;;4.70;99.90;;;5.51;80.65;99841.78;5091650;28;20651;-73
2021/12/01 01:51:25;;;;;;;10.10;1.80;;;4.70;99.90;;;5.55;80.89;99825.22;5084105;28;20253;-73
2021/12/01 01:53:54;;;;;;;14.88;1.90;;;4.70;99.90;;;5.54;80.99;99826.13;5087612;28;20575;-74
2021/12/01 01:56:22;;;;;;;9.05;1.95;;;4.80;99.90;;;5.58;80.90;99827.69;5085726;28;20184;-73
2021/12/01 01:58:50;;;;;;;9.73;1.95;;;4.80;99.90;;;5.58;81.06;99814.72;5092036;28;20555;-74
2021/12/01 02:01:44;;;;;;;12.23;1.98;;;4.80;99.90;;;5.60;81.10;99812.94;5080103;28;20212;-71
2021/12/01 02:04:11;;;;;;;12.30;1.77;;;4.80;99.90;;;5.62;81.30;99816.34;5087334;28;20283;-74
2021/12/01 02:06:38;;;;;;;12.85;2.55;;;4.80;99.90;;;5.64;81.36;99796.38;5086706;28;20198;-73
2021/12/01 02:09:07;;;;;;;12.45;2.00;;;4.90;99.90;;;5.63;81.09;99782.56;5090185;28;20202;-74
2021/12/01 02:11:34;;;;;;;9.98;1.98;;;4.90;99.90;;;5.65;81.02;99796.34;5090477;28;20214;-73
2021/12/01 02:14:03;;;;;;;14.30;2.15;;;4.80;99.90;;;5.66;81.08;99786.81;5083365;28;20265;-73
2021/12/01 02:16:30;;;;;;;13.35;2.35;;;4.90;99.90;;;5.64;80.98;99773.91;5088906;28;21097;-73
2021/12/01 02:18:57;;;;;;;7.93;1.70;;;4.90;99.90;;;5.62;81.04;99773.09;5086818;28;20200;-73
2021/12/01 02:21:28;;;;;;;14.52;2.00;;;4.80;99.90;;;5.64;81.20;99766.13;5085813;28;20208;-71
2021/12/01 02:23:57;;;;;;;12.88;2.17;;;4.90;99.90;;;5.67;81.30;99757.38;5090617;28;20207;-73
2021/12/01 02:26:27;;;;;;;10.05;2.10;;;4.90;99.90;;;5.65;81.18;99744.44;5088858;28;20200;-73
2021/12/01 02:28:58;;;;;;;11.65;1.92;;;4.90;99.90;;;5.63;81.45;99743.63;5080445;28;20210;-73
2021/12/01 02:31:33;;;;;;;17.08;1.98;;;4.90;99.90;;;5.65;81.50;99733.22;5091122;28;20214;-74
2021/12/01 02:34:00;;;;;;;8.10;1.90;;;4.90;99.90;;;5.66;81.44;99727.13;5088948;28;20230;-73
2021/12/01 02:36:28;;;;;;;9.15;2.08;;;4.90;99.90;;;5.67;81.62;99716.69;5089817;28;20196;-73
2021/12/01 02:38:55;;;;;;;14.68;2.72;;;4.90;99.90;;;5.67;81.54;99718.44;5082101;28;20201;-73
2021/12/01 02:41:28;;;;;;;10.40;2.17;;;4.90;99.90;;;5.63;81.70;99719.44;5090947;28;20211;-73
2021/12/01 02:43:57;;;;;;;16.92;2.60;;;4.90;99.90;;;5.61;81.65;99723.84;5085996;28;20691;-73
2021/12/01 02:46:24;;;;;;;13.05;2.17;;;4.80;99.90;;;5.63;82.03;99719.44;5091710;28;20611;-74
2021/12/01 02:48:54;;;;;;;12.25;2.22;;;4.90;99.90;;;5.65;81.98;99709.84;5087061;28;20191;-74
2021/12/01 02:51:25;;;;;;;13.48;2.53;;;4.90;99.90;;;5.64;81.86;99706.44;5084357;28;20570;-74
2021/12/01 02:53:53;;;;;;;8.75;1.70;;;4.90;99.90;;;5.65;82.35;99697.75;5088466;28;20223;-74
2021/12/01 02:56:22;;;;;;;13.82;2.20;;;4.90;99.90;;;5.67;82.24;99700.28;5091568;28;20187;-74
2021/12/01 02:58:52;;;;;;;12.88;2.17;;;4.90;99.90;;;5.65;82.55;99686.50;5088859;28;20198;-72
2021/12/01 03:01:22;;;;;;;14.77;2.70;;;4.90;99.90;;;5.65;82.42;99678.72;5086995;28;20227;-73
2021/12/01 03:03:51;;;;;;;11.48;2.40;;;4.90;99.90;;;5.63;82.75;99686.56;5094454;28;20278;-72
2021/12/01 03:06:21;;;;;;;10.40;1.83;;;4.90;99.90;;;5.67;82.72;99671.75;5092885;28;20572;-73
2021/12/01 03:08:48;;;;;;;10.85;1.58;;;4.90;99.90;;;5.72;82.72;99662.91;5091297;28;20191;-71
2021/12/01 03:11:17;;;;;;;8.25;2.30;;;5.00;99.90;;;5.75;82.50;99665.38;5081327;28;20208;-73
2021/12/01 03:13:44;;;;;;;9.93;2.15;;;5.00;99.90;;;5.75;82.61;99656.75;5087663;28;20218;-74
2021/12/01 03:16:11;;;;;;;15.43;2.28;;;5.00;99.90;;;5.77;82.77;99654.94;5088066;28;20238;-73
2021/12/01 03:18:38;;;;;;;13.40;2.15;;;5.00;99.90;;;5.79;82.98;99656.59;5084595;28;20194;-73
2021/12/01 03:21:05;;;;;;;12.18;2.00;;;5.00;99.90;;;5.79;82.84;99663.53;5091305;28;20215;-74
2021/12/01 03:23:32;;;;;;;14.20;1.95;;;5.10;99.90;;;5.79;82.85;99645.34;5085048;28;20602;-73
2021/12/01 03:25:59;;;;;;;14.65;2.10;;;5.10;99.90;;;5.84;82.93;99641.75;5082006;28;20207;-73
2021/12/01 03:28:27;;;;;;;11.82;2.03;;;5.10;99.90;;;5.84;82.81;99635.69;5086478;28;20211;-73
2021/12/01 03:30:54;;;;;;;14.75;2.10;;;5.10;99.90;;;5.83;82.90;99640.03;5092974;28;20234;-72
2021/12/01 03:33:24;;;;;;;14.45;2.60;;;5.10;99.90;;;5.85;83.16;99642.56;5093455;28;20260;-74
2021/12/01 03:35:54;;;;;;;9.25;2.28;;;5.10;99.90;;;5.86;83.00;99636.50;5088897;28;20222;-74
2021/12/01 03:38:26;;;;;;;14.52;2.47;;;5.10;99.90;;;5.85;83.16;99629.59;5089820;28;20663;-73
2021/12/01 03:40:56;;;;;;;11.18;2.05;;;5.10;99.90;;;5.89;83.39;99623.41;5085229;28;20242;-74
2021/12/01 03:43:23;;;;;;;9.57;1.65;;;5.10;99.90;;;5.95;82.96;99616.22;5092513;28;20202;-72
2021/12/01 03:45:51;;;;;;;10.90;2.03;;;5.10;99.90;;;5.95;82.91;99615.38;5093360;28;20195;-71
2021/12/01 03:48:18;;;;;;;15.32;2.25;;;5.20;99.90;;;5.94;83.07;99618.88;5093658;28;20273;-73
2021/12/01 03:50:49;;;;;;;12.07;2.17;;;5.10;99.90;;;5.92;83.25;99603.38;5095034;28;20212;-72
2021/12/01 03:53:16;;;;;;;11.02;1.67;;;5.10;99.90;;;5.95;83.42;99597.19;5082639;28;20638;-73
2021/12/01 03:55:44;;;;;;;8.70;1.63;;;5.20;99.90;;;5.98;83.21;99591.88;5094406;28;20187;-74
2021/12/01 03:58:10;;;;;;;10.43;2.58;;;5.20;99.90;;;5.98;83.31;99591.88;5091565;28;20655;-73
2021/12/01 04:00:37;;;;;;;15.77;2.33;;;5.20;99.90;;;5.99;83.37;99593.59;5080258;28;20270;-71
2021/12/01 04:03:06;;;;;;;13.32;1.90;;;5.20;99.90;;;6.06;83.47;99593.28;5103758;28;20187;-73
2021/12/01 04:05:32;;;;;;;13.25;2.22;;;5.20;99.90;;;6.04;83.22;99589.94;5102055;28;20660;-71
2021/12/01 04:08:02;;;;;;;11.82;1.95;;;5.20;99.90;;;6.06;83.52;99576.91;5083868;28;20195;-74
2021/12/01 04:10:30;;;;;;;8.82;1.77;;;5.30;99.90;;;6.09;83.42;99577.63;5085041;28;20203;-73
2021/12/01 04:12:57;;;;;;;11.95;2.33;;;5.20;99.90;;;6.13;83.46;99580.91;5085516;28;20199;-71
2021/12/01 04:15:24;;;;;;;12.23;1.92;;;5.20;99.90;;;6.13;83.49;99568.78;5091628;28;20198;-73
2021/12/01 04:17:51;;;;;;;14.38;2.20;;;5.30;99.90;;;6.17;83.28;99561.75;5091994;28;20195;-73
2021/12/01 04:20:20;;;;;;;10.60;1.80;;;5.30;99.90;;;6.22;83.56;99554.63;5093913;28;20207;-73
2021/12/01 04:22:49;;;;;;;14.05;2.00;;;5.40;99.90;;;6.25;83.33;99549.28;5092932;28;20195;-74
2021/12/01 04:25:16;;;;;;;11.60;1.90;;;5.40;99.90;;;6.27;83.24;99547.50;5093300;28;20199;-73
2021/12/01 04:27:43;;;;;;;15.38;2.20;;;5.40;99.90;;;6.27;83.46;99548.34;5093424;28;20192;-74
2021/12/01 04:30:16;;;;;;;11.18;2.20;;;5.50;99.90;;;6.28;83.16;99536.19;5078495;28;20699;-73
2021/12/01 04:32:43;;;;;;;12.77;2.50;;;5.40;99.90;;;6.28;83.38;99542.22;5088073;28;20222;-72
2021/12/01 04:35:12;;;;;;;13.43;1.73;;;5.50;99.90;;;6.30;83.35;99531.78;5091760;28;20215;-73
2021/12/01 04:37:40;;;;;;;12.82;2.22;;;5.50;99.90;;;6.28;83.31;99528.38;5078948;28;20207;-73
2021/12/01 04:40:09;;;;;;;10.20;2.05;;;5.40;99.90;;;6.26;83.56;99514.66;5087921;28;20223;-73
2021/12/01 04:42:36;;;;;;;8.48;2.28;;;5.30;99.90;;;6.22;83.72;99500.94;5088614;28;20789;-74
2021/12/01 04:45:07;;;;;;;14.23;2.38;;;5.20;99.90;;;6.22;84.08;99500.06;5082238;28;20187;-74
2021/12/01 04:47:37;;;;;;;12.82;2.20;;;5.20;99.90;;;6.16;84.03;99497.75;5085485;28;20199;-74
2021/12/01 04:50:06;;;;;;;10.05;1.95;;;5.10;99.90;;;6.12;84.41;99491.81;5088573;28;20219;-72
2021/12/01 04:52:33;;;;;;;10.32;2.28;;;5.00;99.90;;;6.07;84.58;99479.91;5082399;28;20252;-73
2021/12/01 04:55:01;;;;;;;14.15;2.58;;;5.00;99.90;;;5.96;84.87;99469.94;5087947;28;20584;-73
2021/12/01 04:57:28;;;;;;;12.80;2.70;;;4.80;99.90;;;5.87;85.41;99464.28;5088518;28;20678;-73
2021/12/01 04:59:55;;;;;;;15.55;2.28;;;4.80;99.90;;;5.76;85.70;99454.25;5083562;28;20215;-73
2021/12/01 05:02:21;;;;;;;11.40;2.28;;;4.70;99.90;;;5.70;86.03;99444.13;5091408;28;20200;-74
2021/12/01 05:04:48;;;;;;;14.55;2.55;;;4.60;99.90;;;5.66;86.61;99444.31;5091485;28;20210;-74
2021/12/01 05:07:16;;;;;;;8.30;2.05;;;4.60;99.90;;;5.65;87.18;99434.84;5080678;28;20183;-73
2021/12/01 05:09:44;;;;;;;15.77;2.30;;;4.60;99.90;;;5.59;87.10;99422.09;5091415;28;20257;-73
2021/12/01 05:12:12;;;;;;;15.98;2.10;;;4.50;99.90;;;5.59;87.55;99429.88;5086445;28;20183;-73
2021/12/01 05:14:40;;;;;;;12.55;2.72;;;4.50;99.90;;;5.57;87.59;99429.09;5089736;28;20211;-73
2021/12/01 05:17:08;;;;;;;14.07;2.53;;;4.50;99.90;;;5.58;87.82;99423.00;5091876;28;20206;-74
2021/12/01 05:19:36;;;;;;;12.00;2.22;;;4.50;99.90;;;5.61;88.13;99404.75;5085293;28;20208;-74
2021/12/01 05:22:03;;;;;;;10.38;2.10;;;4.50;99.90;;;5.63;88.19;99402.91;5081544;28;20192;-73
2021/12/01 05:24:30;;;;;;;11.77;1.88;;;4.50;99.90;;;5.62;88.09;99402.09;5085702;28;20260;-74
2021/12/01 05:26:57;;;;;;;10.60;2.30;;;4.50;99.90;;;5.64;88.58;99389.91;5083622;28;20199;-73
2021/12/01 05:29:26;;;;;;;14.45;2.03;;;4.50;99.90;;;5.63;88.40;99387.34;5091455;28;20191;-74
2021/12/01 05:31:55;;;;;;;17.40;2.42;;;4.50;99.90;;;5.60;88.69;99384.88;5091856;28;20202;-73
2021/12/01 05:34:22;;;;;;;9.35;2.10;;;4.50;99.90;;;5.62;89.11;99375.28;5093954;28;20203;-74
2021/12/01 05:36:49;;;;;;;9.25;2.15;;;4.50;99.90;;;5.63;89.30;99377.81;5092146;28;20252;-72
2021/12/01 05:39:16;;;;;;;11.57;2.35;;;4.50;99.90;;;5.63;89.39;99364.84;5091247;28;20298;-73
2021/12/01 05:41:44;;;;;;;9.38;2.03;;;4.60;99.90;;;5.63;89.50;99358.81;5088674;28;20211;-72
2021/12/01 05:44:12;;;;;;;9.85;2.33;;;4.60;99.90;;;5.59;89.77;99347.72;5097669;28;20199;-72
2021/12/01 05:46:40;;;;;;;12.30;2.17;;;4.50;99.90;;;5.56;90.07;99349.59;5084780;28;20184;-72
2021/12/01 05:49:06;;;;;;;10.98;2.08;;;4.50;99.90;;;5.52;90.21;99333.31;5088958;28;20195;-73
2021/12/01 05:51:33;;;;;;;13.75;2.50;;;4.50;99.90;;;5.50;90.78;99323.88;5087096;28;20207;-73
2021/12/01 05:54:00;;;;;;;11.00;2.13;;;4.50;99.90;;;5.46;90.83;99320.56;5105833;28;20211;-73
2021/12/01 05:56:27;;;;;;;14.60;2.47;;;4.50;99.90;;;5.47;91.39;99300.66;5085958;28;20249;-74
2021/12/01 05:58:54;;;;;;;12.35;2.38;;;4.50;99.90;;;5.46;91.43;99294.63;5090815;28;20199;-75
2021/12/01 06:01:21;;;;;;;12.13;2.47;;;4.50;99.90;;;5.48;91.97;99286.78;5084107;28;20240;-74
2021/12/01 06:03:49;;;;;;;10.98;2.08;;;4.50;99.90;;;5.51;92.20;99278.91;5090049;28;20221;-72
2021/12/01 06:06:16;;;;;;;12.60;2.40;;;4.50;99.90;;;5.51;92.44;99276.31;5089678;28;20197;-73
2021/12/01 06:08:43;;;;;;;14.52;2.92;;;4.50;99.90;;;5.52;92.53;99270.22;5088430;28;20605;-73
2021/12/01 06:11:10;;;;;;;11.85;2.40;;;4.60;99.90;;;5.52;93.05;99270.22;5095601;28;20610;-73
2021/12/01 06:13:40;;;;;;;12.88;2.88;;;4.60;99.90;;;5.58;93.02;99259.56;5090272;28;20214;-72
2021/12/01 06:16:07;;;;;;;8.82;2.53;;;4.60;99.90;;;5.58;93.09;99256.97;5087396;28;20198;-72
2021/12/01 06:18:34;;;;;;;10.18;2.53;;;4.60;99.90;;;5.59;93.33;99254.34;5089535;28;20183;-74
2021/12/01 06:21:03;;;;;;;8.43;2.45;;;4.60;99.90;;;5.60;93.50;99256.03;5089317;28;20223;-72
2021/12/01 06:23:30;;;;;;;11.52;2.50;;;4.60;99.90;;;5.59;93.44;99248.31;5085382;28;20215;-73
2021/12/01 06:25:57;;;;;;;15.50;2.50;;;4.70;99.90;;;5.55;93.78;99233.75;5090076;28;20214;-73
2021/12/01 06:28:24;;;;;;;6.65;2.50;;;4.70;99.90;;;5.51;93.86;99227.84;5090391;28;20704;-74
2021/12/01 06:30:51;;;;;;;12.32;2.60;;;4.60;99.90;;;5.54;94.08;99230.34;5091969;28;20219;-74
2021/12/01 06:33:17;;;;;;;11.30;2.88;;;4.60;99.90;;;5.53;94.25;99218.25;5084292;28;20241;-73
2021/12/01 06:35:48;;;;;;;10.18;2.78;;;4.60;99.90;;;5.54;94.47;99217.38;5091277;28;20203;-73
2021/12/01 06:38:17;;;;;;;12.35;2.88;;;4.70;99.90;;;5.55;94.61;99218.19;5100010;28;20655;-74
2021/12/01 06:40:45;;;;;;;8.27;2.55;;;4.70;99.90;;;5.55;94.60;99211.25;5084533;28;20206;-74
2021/12/01 06:43:12;;;;;;;11.48;3.00;;;4.70;99.90;;;5.55;94.92;99200.88;5079131;28;20239;-74
2021/12/01 06:45:40;;;;;;;10.70;2.40;;;4.70;99.90;;;5.58;94.75;99197.31;5085387;28;20200;-74
2021/12/01 06:48:07;;;;;;;7.97;2.63;;;4.70;99.90;;;5.61;95.03;99194.59;5091714;28;20199;-74
2021/12/01 06:50:34;;;;;;;10.07;2.40;;;4.70;99.90;;;5.63;95.15;99191.03;5085029;28;20703;-73
2021/12/01 06:53:02;;;;;;;10.15;2.75;;;4.70;99.90;;;5.69;95.68;99200.31;5090880;28;20202;-73
2021/12/01 06:55:31;;;;;;;9.20;2.78;;;4.70;99.90;;;5.71;95.45;99181.16;5084196;28;20700;-75
2021/12/01 06:57:57;;;;;;;12.35;2.70;;;4.80;99.90;;;5.74;95.12;99178.47;5088921;28;20202;-74
2021/12/01 07:00:25;;;;;;;11.55;2.95;;;4.90;99.90;;;5.79;95.62;99178.25;5080755;28;20225;-74
2021/12/01 07:02:53;;;;;;;6.85;2.45;;;4.90;99.90;;;5.80;95.55;99178.19;5107400;28;20191;-74
2021/12/01 07:05:20;;;;;;;8.45;2.78;;;4.90;99.90;;;5.80;95.79;99178.19;5083757;28;20210;-73
2021/12/01 07:07:47;;;;;;;9.43;3.10;;;4.90;99.90;;;5.78;95.53;99169.59;5088167;28;20836;-74
2021/12/01 07:10:15;;;;;;;8.20;2.58;;;4.90;99.90;;;5.80;95.86;99148.78;5089186;28;20219;-75
2021/12/01 07:12:44;;;;;;;9.80;3.17;;;4.90;99.90;;;5.80;95.79;99141.00;5103613;28;20206;-74
2021/12/01 07:15:13;;;;;;;9.10;3.10;;;4.90;99.90;;;5.79;95.95;99142.78;5080402;28;20702;-74
2021/12/01 07:17:40;;;;;;;10.18;2.97;;;4.90;99.90;;;5.83;96.37;99140.88;5081205;28;20187;-74
2021/12/01 07:20:09;;;;;;;8.20;2.92;;;5.00;99.90;;;5.95;96.57;99135.16;5079733;28;20227;-74
2021/12/01 07:22:36;;;;;;;11.40;3.33;;;5.00;99.90;;;6.05;96.81;99126.91;5093126;28;20202;-73
2021/12/01 07:25:05;;;;;;;10.07;3.30;;;5.10;99.90;;;6.10;96.69;99113.69;5089953;28;20199;-74
2021/12/01 07:27:32;;;;;;;9.73;3.50;;;5.20;99.90;;;6.16;96.61;99100.47;5097583;28;20678;-74
2021/12/01 07:30:00;;;;;;;11.93;4.05;;;5.20;99.90;;;6.22;96.68;99097.56;5086660;28;20224;-74
2021/12/01 07:32:28;;;;;;;11.52;3.75;;;5.20;99.90;;;6.23;96.43;99088.84;5112014;28;20191;-73
2021/12/01 07:34:56;;;;;;;11.90;4.30;;;5.30;99.90;;;6.25;96.47;99092.22;5090436;28;20215;-74
2021/12/01 07:37:23;;;;;;;12.13;4.32;;;5.30;99.90;;;6.24;96.64;99080.16;5088941;28;20278;-73
2021/12/01 07:39:51;;;;;;;9.98;3.70;;;5.30;99.90;;;6.30;96.84;99085.06;5087863;28;20227;-73
2021/12/01 07:42:19;;;;;;;10.98;4.03;;;5.40;99.90;;;6.31;96.71;99065.97;5070417;28;20196;-74
2021/12/01 07:44:46;;;;;;;9.85;4.47;;;5.50;99.90;;;6.34;97.08;99065.84;5086615;28;20187;-74
2021/12/01 07:47:15;;;;;;;12.02;4.70;;;5.50;99.90;;;6.38;96.99;99047.44;5087708;28;20207;-72
2021/12/01 07:49:42;;;;;;;14.43;4.43;;;5.50;99.90;;;6.45;97.21;99045.38;5086650;28;20207;-71
2021/12/01 07:52:10;;;;;;;12.77;4.78;;;5.60;99.90;;;6.49;97.28;99041.72;5085360;28;20668;-72
2021/12/01 07:54:39;;;;;;;12.55;5.00;;;5.60;99.90;;;6.51;97.02;99031.25;5086514;28;20207;-73
2021/12/01 07:57:07;;;;;;;13.70;4.60;;;5.60;99.90;;;6.54;97.52;99037.16;5080395;28;20220;-73
2021/12/01 07:59:33;;;;;;;12.27;4.78;;;5.70;99.90;;;6.57;97.45;99025.75;5091762;28;20195;-72
2021/12/01 08:02:00;;;;;;;11.85;5.18;;;5.70;99.90;;;6.65;97.58;99027.06;5097609;28;20195;-73
2021/12/01 08:04:28;;;;;;;12.98;5.53;;;5.80;99.90;;;6.73;97.81;99022.31;5087991;28;20190;-73
2021/12/01 08:06:56;;;;;;;12.02;5.05;;;5.80;99.90;;;6.75;97.55;99004.06;5083252;28;20198;-73
2021/12/01 08:09:24;;;;;;;12.68;4.70;;;5.80;99.90;;;6.75;97.43;99007.50;5081359;28;20663;-73
2021/12/01 08:11:51;;;;;;;12.95;4.97;;;5.90;99.90;;;6.76;97.88;99008.34;5076766;28;20249;-73
2021/12/01 08:14:18;;;;;;;14.90;5.00;;;5.90;99.90;;;6.78;97.69;99015.13;5076161;28;20207;-73
2021/12/01 08:16:45;;;;;;;18.55;5.43;;;6.00;99.90;;;6.81;97.90;98998.56;5079412;28;20203;-72
2021/12/01 08:19:13;;;;;;;11.55;4.93;;;6.00;99.90;;;6.82;98.29;99000.22;5091671;28;20557;-72
2021/12/01 08:21:46;;;;;;;15.02;4.70;;;6.00;99.90;;;6.86;98.36;98989.63;5097168;28;20242;-73
2021/12/01 08:24:13;;;;;;;13.48;5.82;;;6.10;99.90;;;6.90;98.53;98988.53;5080299;28;20546;-73
2021/12/01 08:26:42;;;;;;;14.52;5.32;;;6.10;99.90;;;6.95;98.60;98991.72;5091727;28;20215;-74
2021/12/01 08:29:11;;;;;;;16.35;6.47;;;6.20;99.90;;;6.97;98.58;98974.31;5083471;28;20206;-73
2021/12/01 08:31:38;;;;;;;14.43;6.50;;;6.20;99.90;;;7.01;98.51;98973.22;5086169;28;20210;-72
2021/12/01 08:34:06;;;;;;;13.10;5.55;;;6.30;99.90;;;7.02;98.77;98977.50;5087213;28;20199;-73
2021/12/01 08:36:33;;;;;;;12.00;4.78;;;6.30;99.90;;;7.03;98.87;98970.56;5090185;28;20187;-74
2021/12/01 08:39:02;;;;;;;12.10;5.63;;;6.30;99.90;;;7.05;99.14;98977.34;5091249;28;20195;-73
2021/12/01 08:41:29;;;;;;;14.95;5.00;;;6.30;99.90;;;7.09;99.11;98967.63;5086509;28;20214;-73
2021/12/01 08:43:55;;;;;;;11.85;5.47;;;6.40;99.90;;;7.09;99.10;98952.88;5081534;28;20632;-73
2021/12/01 08:46:22;;;;;;;13.00;5.32;;;6.40;99.90;;;7.12;99.44;98951.84;5089129;28;20192;-73
2021/12/01 08:48:49;;;;;;;11.68;4.90;;;6.40;99.90;;;7.15;99.57;98952.53;5092671;28;20195;-73
2021/12/01 08:51:16;;;;;;;11.55;5.32;;;6.40;99.90;;;7.15;99.37;98944.72;5094900;28;20211;-74
2021/12/01 08:53:44;;;;;;;12.35;5.20;;;6.40;99.90;;;7.20;99.46;98949.72;5091686;28;20199;-72
2021/12/01 08:56:16;;;;;;;13.45;5.15;;;6.50;99.90;;;7.23;99.56;98934.75;5089373;28;20230;-73
2021/12/01 08:58:43;;;;;;;10.98;5.00;;;6.50;99.90;;;7.30;99.58;98941.31;5092630;28;20276;-75
2021/12/01 09:01:10;;;;;;;15.07;5.80;;;6.50;99.90;;;7.33;99.58;98938.56;5082307;28;20301;-72
2021/12/01 09:03:37;;;;;;;11.95;5.05;;;6.60;99.90;;;7.37;99.76;98937.47;5077581;28;20652;-73
2021/12/01 09:06:05;;;;;;;11.00;4.63;;;6.60;99.90;;;7.38;99.65;98923.53;5077091;28;20231;-73
2021/12/01 09:08:31;;;;;;;10.57;4.15;;;6.60;99.90;;;7.39;99.49;98930.44;5092068;28;20199;-73
2021/12/01 09:11:02;;;;;;;10.27;4.43;;;6.60;99.90;;;7.37;99.16;98916.66;5085923;28;20216;-73
2021/12/01 09:13:33;;;;;;;10.30;3.83;;;6.60;99.90;;;7.36;99.36;98925.41;5087403;28;20220;-75
2021/12/01 09:16:00;;;;;;;10.68;4.10;;;6.60;99.90;;;7.34;99.55;98922.03;5094346;28;20316;-75
2021/12/01 09:18:29;;;;;;;10.20;3.95;;;6.60;99.90;;;7.35;99.54;98915.91;5084573;28;20199;-73
2021/12/01 09:20:56;;;;;;;9.35;3.55;;;6.60;99.90;;;7.35;99.67;98909.88;5092735;28;20724;-76
2021/12/01 09:23:24;;;;;;;10.38;3.50;;;6.60;99.90;;;7.30;99.17;98891.91;5082551;28;20192;-75
2021/12/01 09:25:51;;;;;;;8.50;3.42;;;6.60;99.90;;;7.29;99.34;98903.25;5075596;28;20548;-74
2021/12/01 09:28:23;;;;;;;8.00;2.90;;;6.60;99.90;;;7.31;99.65;98891.00;5085060;28;20217;-76
2021/12/01 09:30:53;;;;;;;8.73;3.10;;;6.60;99.90;;;7.31;99.71;98883.19;5081285;28;20745;-74
2021/12/01 09:33:20;;;;;;;7.78;2.92;;;6.60;99.90;;;7.35;99.69;98892.50;5080192;28;20913;-75
2021/12/01 09:35:47;;;;;;;10.40;2.85;;;6.70;99.90;;;7.33;99.78;98878.72;5085395;28;20215;-75
2021/12/01 09:38:17;;;;;;;9.52;2.63;;;6.70;99.90;;;7.33;99.56;98894.31;5082023;28;20196;-74
2021/12/01 09:40:48;;;;;;;8.45;3.00;;;6.70;99.90;;;7.34;99.39;98874.38;5079362;28;20211;-77
2021/12/01 09:43:17;;;;;;;7.55;2.78;;;6.70;99.90;;;7.36;99.75;98880.34;5081151;28;20231;-75
2021/12/01 09:45:46;;;;;;;6.75;2.38;;;6.70;99.90;;;7.37;99.49;98869.84;5093374;28;20196;-73
2021/12/01 09:48:14;;;;;;;7.28;2.55;;;6.70;99.90;;;7.40;99.54;98863.66;5080114;28;20196;-74
2021/12/01 09:50:41;;;;;;;6.80;2.58;;;6.70;99.90;;;7.41;99.14;98865.31;5090918;28;20579;-74
2021/12/01 09:53:08;;;;;;;6.88;2.45;;;6.70;99.90;;;7.45;99.48;98857.25;5089040;28;20222;-73
2021/12/01 09:55:36;;;;;;;8.75;3.00;;;6.70;99.90;;;7.53;99.49;98856.84;5091156;28;20840;-73
2021/12/01 09:58:07;;;;;;;8.82;2.90;;;6.80;99.90;;;7.61;99.25;98854.63;5088823;28;20202;-74
2021/12/01 10:00:36;;;;;;;7.75;2.60;;;6.80;99.90;;;7.61;99.06;98836.41;5082220;28;20222;-74
2021/12/01 10:03:03;;;;;;;8.38;2.70;;;6.80;99.90;;;7.61;98.90;98824.25;5090892;28;20196;-72
2021/12/01 10:06:03;;;;;;;9.82;2.65;;;6.80;99.90;;;7.64;98.77;98829.28;5081064;28;20672;-73
2021/12/01 10:08:34;;;;;;;6.88;2.40;;;6.80;99.90;;;7.65;98.68;98823.13;5083862;28;20192;-72
2021/12/01 10:11:09;;;;;;;7.25;2.50;;;6.90;99.90;;;7.66;98.42;98813.56;5080416;28;20230;-73
2021/12/01 10:13:39;;;;;;;8.00;2.53;;;6.80;99.90;;;7.66;98.26;98805.75;5088718;28;20194;-73
2021/12/01 10:16:09;;;;;;;7.50;2.50;;;6.90;99.90;;;7.67;98.24;98804.00;5092639;28;20234;-72
2021/12/01 10:18:39;;;;;;;9.60;2.97;;;6.90;99.90;;;7.68;97.91;98805.69;5086539;28;20241;-73
2021/12/01 10:21:13;;;;;;;8.98;2.85;;;6.90;99.90;;;7.73;98.06;98785.44;5079917;28;20219;-72
2021/12/01 10:23:47;;;;;;;7.40;2.33;;;6.90;99.90;;;7.75;97.76;98786.19;5095552;28;20198;-74
2021/12/01 10:26:20;;;;;;;7.20;2.60;;;6.90;99.90;;;7.77;97.69;98789.53;5086562;28;20226;-74
2021/12/01 10:28:50;;;;;;;8.88;2.42;;;7.00;99.90;;;7.78;97.51;98778.19;5086265;28;20198;-74
2021/12/01 10:31:33;;;;;;;8.00;2.60;;;7.00;99.90;;;7.77;97.19;98772.13;5085365;28;20265;-72
2021/12/01 10:34:16;;;;;;;7.50;2.42;;;7.00;99.90;;;7.77;97.07;98751.31;5082169;28;20223;-72
2021/12/01 10:36:44;;;;;;;6.80;2.75;;;7.00;99.90;;;7.80;97.19;98753.75;5084158;28;20764;-72
2021/12/01 10:39:11;;;;;;;8.95;2.60;;;7.10;99.90;;;7.88;97.14;98766.31;5085568;28;20196;-73